Sliač, Slovensko

07:55 PM CEST dna 20 Október, 2014 (GMT +0200)
Badín | Change Station
CLOSE
Current Station
Personal Weather Stations
Location: Badin, Banskobystricky kraj
Nad. výška:: 1306 ft
Najbližšie meteo stanice

Elev 1306 ft 48.67 °N, 19.12 °E | Updated 31 seconds ago

Mostly Cloudy
Prevažne zamračené
57.6 °F
Feels Like 57.6 °F
N
4.0
Vietor meniaci sa Vietor from VSV
Gusts 6.0 mph

Dnes
High -- | Low -- °F
--% Chance of Precip.
Yesterday
High -- | Low -- °F
Precip. -- in
7:10 AM 5:44 PM
Ubúdajúci mesiac, 4. fáza, 10% visible
Tlak 29.98 in
Viditeľnosť 6.2 mile
Oblačnost Few 3000 ft
Prevažne zamračené 6100 ft
Prevažne zamračené 7700 ft
Rosný bod 54 °F
Vlhkosť 89%
Rainfall 0.00 in
Výška snehu Not available.
UV 0.0 out of 12
Pollen Not available.
Air Quality Not available.
Flu Activity Not available.
METAR LZZI 201730Z 30003KT 9999 FEW030 BKN061 BKN077 13/12 Q1015

More Conditions Fewer Conditions

Tlak 29.98 in
Viditeľnosť 6.2 mile
Oblačnost Few 3000 ft
Prevažne zamračené 6100 ft
Prevažne zamračené 7700 ft
Rosný bod 54 °F
Vlhkosť 89%
Rainfall 0.00 in
Výška snehu Not available.
UV 0.0 out of 12
Pollen Not available.
Air Quality Not available.
Flu Activity Not available.
METAR LZZI 201730Z 30003KT 9999 FEW030 BKN061 BKN077 13/12 Q1015

More Conditions Fewer Conditions

10-Day Weather Forecast

Almanac

Astronómia

Oct. 20, 2014 Východ Západ
Aktuálny čas 7:10 AM CEST 5:44 PM CEST
Civil Twilight 6:38 AM CEST 6:16 PM CEST
Nautical Twilight 6:02 AM CEST 6:53 PM CEST
Astronomical Twilight 5:25 AM CEST 7:29 PM CEST
Mesiac 3:25 AM CEST 4:12 PM CEST
Length Of Visible Light 11h 38m
Dĺžka dňa
10h 34m
Tomorrow will be 3m 24s shorter.
Ubúdajúci mesiac, 4. fáza, 10% of the Moon is Illuminated
Dnes
Ubúdajúci mesiac, 4. fáza
Oct 23
New
Oct 30
Prvá štvrtina
Nov 6
Spln
Nov 14
Posledná štvrť

Today's Extremes

Country Highs Country Lows

Community

WunderPhotos

Upload Photos

1,763,446 photos uploaded!

WunderBlogs® & News

Nearby

Výska snehu

Not available.

Aktivita zemetrasenia

Mesto Distance Mag. Time & Date
No recent earthquake activity has been reported nearby.
Minimum magnitude displayed is 2.5.

Coastal Water Temperatures

Miesto Teplota
No Stations Reporting

Najbližšie meteo stanice